sensor_id;sensor_type;location;lat;lon;timestamp;P1;durP1;ratioP1;P2;durP2;ratioP2
73672;SDS011;61972;19.480;-99.240;2023-05-20T00:02:06;20.27;;;9.65;;
73672;SDS011;61972;19.480;-99.240;2023-05-20T00:04:32;14.80;;;9.43;;
73672;SDS011;61972;19.480;-99.240;2023-05-20T00:06:58;20.73;;;9.47;;
73672;SDS011;61972;19.480;-99.240;2023-05-20T00:09:24;16.98;;;10.05;;
73672;SDS011;61972;19.480;-99.240;2023-05-20T00:11:50;12.88;;;10.25;;
73672;SDS011;61972;19.480;-99.240;2023-05-20T00:14:16;18.75;;;9.38;;
73672;SDS011;61972;19.480;-99.240;2023-05-20T00:16:42;18.48;;;8.85;;
73672;SDS011;61972;19.480;-99.240;2023-05-20T00:19:09;14.60;;;8.50;;
73672;SDS011;61972;19.480;-99.240;2023-05-20T00:21:41;12.50;;;7.60;;
73672;SDS011;61972;19.480;-99.240;2023-05-20T00:24:07;12.60;;;7.53;;
73672;SDS011;61972;19.480;-99.240;2023-05-20T00:26:42;10.30;;;6.97;;
73672;SDS011;61972;19.480;-99.240;2023-05-20T00:29:15;10.25;;;6.22;;
73672;SDS011;61972;19.480;-99.240;2023-05-20T00:31:41;12.30;;;6.10;;
73672;SDS011;61972;19.480;-99.240;2023-05-20T00:34:08;11.10;;;5.90;;
73672;SDS011;61972;19.480;-99.240;2023-05-20T00:36:37;12.90;;;6.32;;
73672;SDS011;61972;19.480;-99.240;2023-05-20T00:39:12;11.60;;;5.88;;
73672;SDS011;61972;19.480;-99.240;2023-05-20T00:41:38;11.10;;;5.63;;
73672;SDS011;61972;19.480;-99.240;2023-05-20T00:44:05;8.57;;;6.13;;
73672;SDS011;61972;19.480;-99.240;2023-05-20T00:46:31;10.73;;;5.90;;
73672;SDS011;61972;19.480;-99.240;2023-05-20T00:49:00;7.75;;;5.13;;
73672;SDS011;61972;19.480;-99.240;2023-05-20T00:51:27;10.10;;;5.57;;
73672;SDS011;61972;19.480;-99.240;2023-05-20T00:53:55;9.20;;;5.70;;
73672;SDS011;61972;19.480;-99.240;2023-05-20T00:56:22;8.00;;;5.57;;
73672;SDS011;61972;19.480;-99.240;2023-05-20T00:58:54;11.65;;;5.82;;
73672;SDS011;61972;19.480;-99.240;2023-05-20T01:01:20;9.05;;;5.82;;
73672;SDS011;61972;19.480;-99.240;2023-05-20T01:03:47;8.32;;;5.93;;
73672;SDS011;61972;19.480;-99.240;2023-05-20T01:06:13;11.20;;;5.80;;
73672;SDS011;61972;19.480;-99.240;2023-05-20T01:08:39;8.43;;;5.93;;
73672;SDS011;61972;19.480;-99.240;2023-05-20T01:11:11;8.93;;;6.07;;
73672;SDS011;61972;19.480;-99.240;2023-05-20T01:13:47;9.38;;;5.70;;
73672;SDS011;61972;19.480;-99.240;2023-05-20T01:16:19;11.45;;;6.43;;
73672;SDS011;61972;19.480;-99.240;2023-05-20T01:18:48;9.60;;;6.43;;
73672;SDS011;61972;19.480;-99.240;2023-05-20T01:21:19;11.73;;;6.30;;
73672;SDS011;61972;19.480;-99.240;2023-05-20T01:23:46;9.40;;;6.20;;
73672;SDS011;61972;19.480;-99.240;2023-05-20T01:26:12;8.52;;;5.53;;
73672;SDS011;61972;19.480;-99.240;2023-05-20T01:28:39;9.73;;;6.43;;
73672;SDS011;61972;19.480;-99.240;2023-05-20T01:31:13;12.70;;;6.10;;
73672;SDS011;61972;19.480;-99.240;2023-05-20T01:33:44;11.60;;;6.07;;
73672;SDS011;61972;19.480;-99.240;2023-05-20T01:36:13;9.13;;;6.18;;
73672;SDS011;61972;19.480;-99.240;2023-05-20T01:38:42;10.48;;;6.10;;
73672;SDS011;61972;19.480;-99.240;2023-05-20T01:41:09;9.57;;;6.82;;
73672;SDS011;61972;19.480;-99.240;2023-05-20T01:43:39;12.75;;;6.43;;
73672;SDS011;61972;19.480;-99.240;2023-05-20T01:46:06;8.60;;;6.10;;
73672;SDS011;61972;19.480;-99.240;2023-05-20T01:48:32;9.55;;;6.20;;
73672;SDS011;61972;19.480;-99.240;2023-05-20T01:51:01;8.90;;;6.20;;
73672;SDS011;61972;19.480;-99.240;2023-05-20T01:53:27;8.82;;;6.20;;
73672;SDS011;61972;19.480;-99.240;2023-05-20T01:55:54;9.48;;;6.30;;
73672;SDS011;61972;19.480;-99.240;2023-05-20T01:58:20;9.00;;;5.93;;
73672;SDS011;61972;19.480;-99.240;2023-05-20T02:00:48;11.98;;;6.65;;
73672;SDS011;61972;19.480;-99.240;2023-05-20T02:03:16;8.45;;;6.68;;
73672;SDS011;61972;19.480;-99.240;2023-05-20T02:05:43;8.68;;;6.00;;
73672;SDS011;61972;19.480;-99.240;2023-05-20T02:08:09;9.75;;;6.97;;
73672;SDS011;61972;19.480;-99.240;2023-05-20T02:10:38;10.77;;;7.13;;
73672;SDS011;61972;19.480;-99.240;2023-05-20T02:13:08;9.23;;;6.93;;
73672;SDS011;61972;19.480;-99.240;2023-05-20T02:15:34;10.77;;;7.05;;
73672;SDS011;61972;19.480;-99.240;2023-05-20T02:18:00;10.43;;;6.80;;
73672;SDS011;61972;19.480;-99.240;2023-05-20T02:20:26;13.07;;;7.13;;
73672;SDS011;61972;19.480;-99.240;2023-05-20T02:23:13;10.17;;;7.10;;
73672;SDS011;61972;19.480;-99.240;2023-05-20T02:25:39;9.77;;;7.45;;
73672;SDS011;61972;19.480;-99.240;2023-05-20T02:28:05;12.25;;;7.20;;
73672;SDS011;61972;19.480;-99.240;2023-05-20T02:30:36;11.52;;;6.97;;
73672;SDS011;61972;19.480;-99.240;2023-05-20T02:33:02;11.57;;;7.60;;
73672;SDS011;61972;19.480;-99.240;2023-05-20T02:35:31;13.37;;;8.20;;
73672;SDS011;61972;19.480;-99.240;2023-05-20T02:37:57;9.85;;;7.50;;
73672;SDS011;61972;19.480;-99.240;2023-05-20T02:40:23;12.40;;;8.05;;
73672;SDS011;61972;19.480;-99.240;2023-05-20T02:42:50;11.77;;;8.63;;
73672;SDS011;61972;19.480;-99.240;2023-05-20T02:45:16;11.10;;;8.20;;
73672;SDS011;61972;19.480;-99.240;2023-05-20T02:47:42;10.83;;;7.93;;
73672;SDS011;61972;19.480;-99.240;2023-05-20T02:50:08;14.48;;;8.13;;
73672;SDS011;61972;19.480;-99.240;2023-05-20T02:52:35;10.80;;;8.23;;
73672;SDS011;61972;19.480;-99.240;2023-05-20T02:55:04;10.18;;;7.63;;
73672;SDS011;61972;19.480;-99.240;2023-05-20T02:57:31;13.23;;;7.88;;
73672;SDS011;61972;19.480;-99.240;2023-05-20T02:59:59;11.50;;;8.47;;
73672;SDS011;61972;19.480;-99.240;2023-05-20T03:02:26;11.88;;;7.72;;
73672;SDS011;61972;19.480;-99.240;2023-05-20T03:04:52;9.32;;;7.43;;
73672;SDS011;61972;19.480;-99.240;2023-05-20T03:07:18;9.70;;;7.68;;
73672;SDS011;61972;19.480;-99.240;2023-05-20T03:09:45;9.50;;;7.30;;
73672;SDS011;61972;19.480;-99.240;2023-05-20T03:12:12;9.87;;;7.20;;
73672;SDS011;61972;19.480;-99.240;2023-05-20T03:14:41;10.10;;;7.18;;
73672;SDS011;61972;19.480;-99.240;2023-05-20T03:17:07;13.45;;;7.40;;
73672;SDS011;61972;19.480;-99.240;2023-05-20T03:19:34;10.43;;;7.50;;
73672;SDS011;61972;19.480;-99.240;2023-05-20T03:22:01;10.93;;;7.00;;
73672;SDS011;61972;19.480;-99.240;2023-05-20T03:24:27;10.07;;;7.00;;
73672;SDS011;61972;19.480;-99.240;2023-05-20T03:26:53;8.80;;;7.03;;
73672;SDS011;61972;19.480;-99.240;2023-05-20T03:29:22;10.57;;;7.18;;
73672;SDS011;61972;19.480;-99.240;2023-05-20T03:31:48;10.90;;;7.22;;
73672;SDS011;61972;19.480;-99.240;2023-05-20T03:34:17;9.77;;;7.45;;
73672;SDS011;61972;19.480;-99.240;2023-05-20T03:36:43;8.80;;;6.73;;
73672;SDS011;61972;19.480;-99.240;2023-05-20T03:39:13;10.13;;;7.25;;
73672;SDS011;61972;19.480;-99.240;2023-05-20T03:41:39;10.13;;;7.20;;
73672;SDS011;61972;19.480;-99.240;2023-05-20T03:44:05;9.68;;;6.75;;
73672;SDS011;61972;19.480;-99.240;2023-05-20T03:46:31;9.98;;;6.90;;
73672;SDS011;61972;19.480;-99.240;2023-05-20T03:48:58;10.37;;;6.93;;
73672;SDS011;61972;19.480;-99.240;2023-05-20T03:51:26;10.25;;;6.95;;
73672;SDS011;61972;19.480;-99.240;2023-05-20T03:53:52;8.05;;;6.97;;
73672;SDS011;61972;19.480;-99.240;2023-05-20T03:56:18;8.55;;;6.53;;
73672;SDS011;61972;19.480;-99.240;2023-05-20T03:58:45;8.75;;;6.82;;
73672;SDS011;61972;19.480;-99.240;2023-05-20T04:01:12;9.93;;;7.10;;
73672;SDS011;61972;19.480;-99.240;2023-05-20T04:03:39;9.48;;;7.13;;
73672;SDS011;61972;19.480;-99.240;2023-05-20T04:06:06;10.25;;;7.55;;
73672;SDS011;61972;19.480;-99.240;2023-05-20T04:08:32;12.10;;;7.13;;
73672;SDS011;61972;19.480;-99.240;2023-05-20T04:11:01;9.18;;;6.63;;
73672;SDS011;61972;19.480;-99.240;2023-05-20T04:13:27;9.33;;;6.10;;
73672;SDS011;61972;19.480;-99.240;2023-05-20T04:15:53;9.13;;;6.35;;
73672;SDS011;61972;19.480;-99.240;2023-05-20T04:18:19;8.45;;;6.57;;
73672;SDS011;61972;19.480;-99.240;2023-05-20T04:20:46;7.85;;;6.40;;
73672;SDS011;61972;19.480;-99.240;2023-05-20T04:23:12;9.95;;;6.70;;
73672;SDS011;61972;19.480;-99.240;2023-05-20T04:25:44;8.47;;;6.50;;
73672;SDS011;61972;19.480;-99.240;2023-05-20T04:28:10;7.63;;;6.00;;
73672;SDS011;61972;19.480;-99.240;2023-05-20T04:30:38;8.82;;;6.10;;
73672;SDS011;61972;19.480;-99.240;2023-05-20T04:33:04;7.65;;;5.85;;
73672;SDS011;61972;19.480;-99.240;2023-05-20T04:35:30;11.55;;;6.55;;
73672;SDS011;61972;19.480;-99.240;2023-05-20T04:37:59;10.13;;;6.20;;
73672;SDS011;61972;19.480;-99.240;2023-05-20T04:40:26;9.00;;;5.93;;
73672;SDS011;61972;19.480;-99.240;2023-05-20T04:42:52;12.13;;;5.82;;
73672;SDS011;61972;19.480;-99.240;2023-05-20T04:45:20;9.57;;;5.45;;
73672;SDS011;61972;19.480;-99.240;2023-05-20T04:47:47;9.98;;;5.80;;
73672;SDS011;61972;19.480;-99.240;2023-05-20T04:50:13;11.63;;;5.70;;
73672;SDS011;61972;19.480;-99.240;2023-05-20T04:52:40;10.27;;;5.78;;
73672;SDS011;61972;19.480;-99.240;2023-05-20T04:55:08;12.15;;;5.68;;
73672;SDS011;61972;19.480;-99.240;2023-05-20T04:57:34;10.65;;;5.85;;
73672;SDS011;61972;19.480;-99.240;2023-05-20T05:00:03;8.13;;;5.18;;
73672;SDS011;61972;19.480;-99.240;2023-05-20T05:02:32;8.30;;;5.40;;
73672;SDS011;61972;19.480;-99.240;2023-05-20T05:04:59;10.20;;;5.53;;
73672;SDS011;61972;19.480;-99.240;2023-05-20T05:07:25;8.30;;;5.40;;
73672;SDS011;61972;19.480;-99.240;2023-05-20T05:09:51;8.70;;;4.72;;
73672;SDS011;61972;19.480;-99.240;2023-05-20T05:12:17;13.00;;;5.55;;
73672;SDS011;61972;19.480;-99.240;2023-05-20T05:14:43;8.33;;;5.00;;
73672;SDS011;61972;19.480;-99.240;2023-05-20T05:17:09;7.30;;;4.60;;
73672;SDS011;61972;19.480;-99.240;2023-05-20T05:19:35;8.50;;;4.82;;
73672;SDS011;61972;19.480;-99.240;2023-05-20T05:22:01;7.60;;;4.70;;
73672;SDS011;61972;19.480;-99.240;2023-05-20T05:24:27;8.88;;;5.25;;
73672;SDS011;61972;19.480;-99.240;2023-05-20T05:26:54;6.40;;;4.70;;
73672;SDS011;61972;19.480;-99.240;2023-05-20T05:29:20;6.50;;;4.78;;
73672;SDS011;61972;19.480;-99.240;2023-05-20T05:31:46;7.85;;;5.10;;
73672;SDS011;61972;19.480;-99.240;2023-05-20T05:34:13;6.50;;;4.82;;
73672;SDS011;61972;19.480;-99.240;2023-05-20T05:36:39;10.32;;;4.85;;
73672;SDS011;61972;19.480;-99.240;2023-05-20T05:39:05;6.67;;;4.90;;
73672;SDS011;61972;19.480;-99.240;2023-05-20T05:41:32;7.75;;;5.10;;
73672;SDS011;61972;19.480;-99.240;2023-05-20T05:43:58;8.30;;;4.82;;
73672;SDS011;61972;19.480;-99.240;2023-05-20T05:46:25;7.28;;;4.68;;
73672;SDS011;61972;19.480;-99.240;2023-05-20T05:48:51;6.45;;;4.45;;
73672;SDS011;61972;19.480;-99.240;2023-05-20T05:51:17;6.30;;;4.60;;
73672;SDS011;61972;19.480;-99.240;2023-05-20T05:53:43;7.57;;;4.80;;
73672;SDS011;61972;19.480;-99.240;2023-05-20T05:56:09;6.15;;;4.63;;
73672;SDS011;61972;19.480;-99.240;2023-05-20T05:58:36;8.40;;;4.85;;
73672;SDS011;61972;19.480;-99.240;2023-05-20T06:01:03;6.40;;;4.38;;
73672;SDS011;61972;19.480;-99.240;2023-05-20T06:03:29;8.73;;;4.63;;
73672;SDS011;61972;19.480;-99.240;2023-05-20T06:05:55;6.35;;;4.05;;
73672;SDS011;61972;19.480;-99.240;2023-05-20T06:08:22;7.63;;;4.32;;
73672;SDS011;61972;19.480;-99.240;2023-05-20T06:10:57;7.55;;;4.30;;
73672;SDS011;61972;19.480;-99.240;2023-05-20T06:13:23;5.78;;;4.55;;
73672;SDS011;61972;19.480;-99.240;2023-05-20T06:15:49;5.10;;;4.50;;
73672;SDS011;61972;19.480;-99.240;2023-05-20T06:18:15;5.88;;;4.53;;
73672;SDS011;61972;19.480;-99.240;2023-05-20T06:20:41;6.25;;;4.50;;
73672;SDS011;61972;19.480;-99.240;2023-05-20T06:23:07;7.07;;;4.20;;
73672;SDS011;61972;19.480;-99.240;2023-05-20T06:25:34;6.20;;;4.32;;
73672;SDS011;61972;19.480;-99.240;2023-05-20T06:28:00;5.50;;;4.30;;
73672;SDS011;61972;19.480;-99.240;2023-05-20T06:30:26;5.93;;;4.28;;
73672;SDS011;61972;19.480;-99.240;2023-05-20T06:32:52;5.60;;;4.40;;
73672;SDS011;61972;19.480;-99.240;2023-05-20T06:35:21;5.55;;;4.32;;
73672;SDS011;61972;19.480;-99.240;2023-05-20T06:37:47;6.32;;;4.50;;
73672;SDS011;61972;19.480;-99.240;2023-05-20T06:40:13;5.53;;;3.93;;
73672;SDS011;61972;19.480;-99.240;2023-05-20T06:42:40;4.85;;;4.07;;
73672;SDS011;61972;19.480;-99.240;2023-05-20T06:45:09;6.13;;;4.25;;
73672;SDS011;61972;19.480;-99.240;2023-05-20T06:47:35;6.82;;;4.20;;
73672;SDS011;61972;19.480;-99.240;2023-05-20T06:50:02;5.18;;;3.90;;
73672;SDS011;61972;19.480;-99.240;2023-05-20T06:52:28;5.63;;;4.37;;
73672;SDS011;61972;19.480;-99.240;2023-05-20T06:54:54;5.07;;;4.13;;
73672;SDS011;61972;19.480;-99.240;2023-05-20T06:57:20;6.57;;;4.03;;
73672;SDS011;61972;19.480;-99.240;2023-05-20T06:59:46;5.55;;;4.05;;
73672;SDS011;61972;19.480;-99.240;2023-05-20T07:02:13;5.53;;;4.25;;
73672;SDS011;61972;19.480;-99.240;2023-05-20T07:04:39;6.20;;;4.57;;
73672;SDS011;61972;19.480;-99.240;2023-05-20T07:07:14;7.55;;;4.13;;
73672;SDS011;61972;19.480;-99.240;2023-05-20T07:09:41;5.68;;;3.78;;
73672;SDS011;61972;19.480;-99.240;2023-05-20T07:12:07;6.40;;;4.10;;
73672;SDS011;61972;19.480;-99.240;2023-05-20T07:14:33;5.47;;;3.70;;
73672;SDS011;61972;19.480;-99.240;2023-05-20T07:17:00;4.97;;;3.97;;
73672;SDS011;61972;19.480;-99.240;2023-05-20T07:19:26;5.82;;;4.13;;
73672;SDS011;61972;19.480;-99.240;2023-05-20T07:21:52;4.75;;;3.83;;
73672;SDS011;61972;19.480;-99.240;2023-05-20T07:24:18;6.28;;;4.32;;
73672;SDS011;61972;19.480;-99.240;2023-05-20T07:26:46;5.90;;;4.20;;
73672;SDS011;61972;19.480;-99.240;2023-05-20T07:29:12;6.47;;;4.00;;
73672;SDS011;61972;19.480;-99.240;2023-05-20T07:31:38;5.10;;;3.53;;
73672;SDS011;61972;19.480;-99.240;2023-05-20T07:34:04;5.20;;;3.70;;
73672;SDS011;61972;19.480;-99.240;2023-05-20T07:36:31;6.63;;;3.55;;
73672;SDS011;61972;19.480;-99.240;2023-05-20T07:38:57;5.13;;;3.85;;
73672;SDS011;61972;19.480;-99.240;2023-05-20T07:41:23;5.90;;;3.90;;
73672;SDS011;61972;19.480;-99.240;2023-05-20T07:43:50;4.95;;;3.67;;
73672;SDS011;61972;19.480;-99.240;2023-05-20T07:46:16;5.78;;;3.78;;
73672;SDS011;61972;19.480;-99.240;2023-05-20T07:48:43;4.72;;;3.72;;
73672;SDS011;61972;19.480;-99.240;2023-05-20T07:51:09;6.47;;;4.00;;
73672;SDS011;61972;19.480;-99.240;2023-05-20T07:53:36;5.73;;;3.77;;
73672;SDS011;61972;19.480;-99.240;2023-05-20T07:56:02;4.50;;;3.47;;
73672;SDS011;61972;19.480;-99.240;2023-05-20T07:58:28;5.75;;;3.63;;
73672;SDS011;61972;19.480;-99.240;2023-05-20T08:00:55;4.57;;;3.47;;
73672;SDS011;61972;19.480;-99.240;2023-05-20T08:03:22;4.68;;;3.60;;
73672;SDS011;61972;19.480;-99.240;2023-05-20T08:05:48;4.70;;;3.70;;
73672;SDS011;61972;19.480;-99.240;2023-05-20T08:08:14;4.90;;;3.70;;
73672;SDS011;61972;19.480;-99.240;2023-05-20T08:10:41;4.45;;;3.42;;
73672;SDS011;61972;19.480;-99.240;2023-05-20T08:13:07;4.47;;;3.60;;
73672;SDS011;61972;19.480;-99.240;2023-05-20T08:15:34;4.40;;;3.70;;
73672;SDS011;61972;19.480;-99.240;2023-05-20T08:18:01;4.97;;;3.90;;
73672;SDS011;61972;19.480;-99.240;2023-05-20T08:20:27;4.57;;;3.67;;
73672;SDS011;61972;19.480;-99.240;2023-05-20T08:22:54;6.63;;;3.67;;
73672;SDS011;61972;19.480;-99.240;2023-05-20T08:25:20;4.72;;;3.58;;
73672;SDS011;61972;19.480;-99.240;2023-05-20T08:27:47;4.82;;;3.60;;
73672;SDS011;61972;19.480;-99.240;2023-05-20T08:30:14;4.70;;;3.40;;
73672;SDS011;61972;19.480;-99.240;2023-05-20T08:32:40;4.90;;;3.65;;
73672;SDS011;61972;19.480;-99.240;2023-05-20T08:35:06;4.75;;;3.67;;
73672;SDS011;61972;19.480;-99.240;2023-05-20T08:37:32;8.65;;;3.60;;
73672;SDS011;61972;19.480;-99.240;2023-05-20T08:39:58;3.90;;;3.13;;
73672;SDS011;61972;19.480;-99.240;2023-05-20T08:42:24;5.00;;;3.37;;
73672;SDS011;61972;19.480;-99.240;2023-05-20T08:44:51;4.07;;;3.35;;
73672;SDS011;61972;19.480;-99.240;2023-05-20T08:47:21;4.47;;;3.45;;
73672;SDS011;61972;19.480;-99.240;2023-05-20T08:49:47;5.55;;;3.10;;
73672;SDS011;61972;19.480;-99.240;2023-05-20T08:52:15;5.22;;;3.40;;
73672;SDS011;61972;19.480;-99.240;2023-05-20T08:54:44;5.20;;;3.20;;
73672;SDS011;61972;19.480;-99.240;2023-05-20T08:57:11;4.00;;;3.33;;
73672;SDS011;61972;19.480;-99.240;2023-05-20T08:59:41;5.15;;;3.55;;
73672;SDS011;61972;19.480;-99.240;2023-05-20T09:02:09;5.05;;;3.53;;
73672;SDS011;61972;19.480;-99.240;2023-05-20T09:04:36;4.97;;;3.33;;
73672;SDS011;61972;19.480;-99.240;2023-05-20T09:07:02;4.33;;;3.27;;
73672;SDS011;61972;19.480;-99.240;2023-05-20T09:09:29;4.40;;;3.38;;
73672;SDS011;61972;19.480;-99.240;2023-05-20T09:11:58;4.47;;;3.25;;
73672;SDS011;61972;19.480;-99.240;2023-05-20T09:14:25;4.80;;;3.45;;
73672;SDS011;61972;19.480;-99.240;2023-05-20T09:16:52;4.70;;;3.70;;
73672;SDS011;61972;19.480;-99.240;2023-05-20T09:19:19;4.77;;;3.60;;
73672;SDS011;61972;19.480;-99.240;2023-05-20T09:21:47;4.47;;;3.30;;
73672;SDS011;61972;19.480;-99.240;2023-05-20T09:24:13;9.15;;;5.30;;
73672;SDS011;61972;19.480;-99.240;2023-05-20T09:26:39;9.73;;;6.90;;
73672;SDS011;61972;19.480;-99.240;2023-05-20T09:29:06;9.15;;;6.90;;
73672;SDS011;61972;19.480;-99.240;2023-05-20T09:31:32;10.00;;;6.23;;
73672;SDS011;61972;19.480;-99.240;2023-05-20T09:34:00;7.63;;;6.00;;
73672;SDS011;61972;19.480;-99.240;2023-05-20T09:36:30;9.85;;;5.80;;
73672;SDS011;61972;19.480;-99.240;2023-05-20T09:39:00;8.25;;;5.68;;
73672;SDS011;61972;19.480;-99.240;2023-05-20T09:41:30;9.45;;;5.88;;
73672;SDS011;61972;19.480;-99.240;2023-05-20T09:43:59;8.10;;;6.17;;
73672;SDS011;61972;19.480;-99.240;2023-05-20T09:46:26;8.63;;;5.82;;
73672;SDS011;61972;19.480;-99.240;2023-05-20T09:48:53;7.38;;;5.45;;
73672;SDS011;61972;19.480;-99.240;2023-05-20T09:51:19;8.70;;;5.68;;
73672;SDS011;61972;19.480;-99.240;2023-05-20T09:53:48;7.28;;;5.03;;
73672;SDS011;61972;19.480;-99.240;2023-05-20T09:56:16;6.90;;;5.17;;
73672;SDS011;61972;19.480;-99.240;2023-05-20T09:58:45;8.18;;;5.40;;
73672;SDS011;61972;19.480;-99.240;2023-05-20T10:01:14;7.28;;;5.20;;
73672;SDS011;61972;19.480;-99.240;2023-05-20T10:03:40;7.82;;;5.22;;
73672;SDS011;61972;19.480;-99.240;2023-05-20T10:11:32;8.52;;;5.45;;
73672;SDS011;61972;19.480;-99.240;2023-05-20T10:17:21;6.40;;;5.18;;
73672;SDS011;61972;19.480;-99.240;2023-05-20T10:19:56;6.68;;;5.20;;
73672;SDS011;61972;19.480;-99.240;2023-05-20T10:22:26;7.00;;;5.10;;
73672;SDS011;61972;19.480;-99.240;2023-05-20T10:25:01;6.38;;;4.97;;
73672;SDS011;61972;19.480;-99.240;2023-05-20T10:27:42;7.85;;;5.15;;
73672;SDS011;61972;19.480;-99.240;2023-05-20T10:30:19;6.53;;;4.88;;
73672;SDS011;61972;19.480;-99.240;2023-05-20T10:32:54;7.05;;;5.15;;
73672;SDS011;61972;19.480;-99.240;2023-05-20T10:35:25;6.30;;;4.70;;
73672;SDS011;61972;19.480;-99.240;2023-05-20T10:38:07;6.05;;;4.53;;
73672;SDS011;61972;19.480;-99.240;2023-05-20T10:40:35;6.15;;;4.68;;
73672;SDS011;61972;19.480;-99.240;2023-05-20T10:43:11;6.32;;;4.75;;
73672;SDS011;61972;19.480;-99.240;2023-05-20T10:45:51;6.05;;;4.72;;
73672;SDS011;61972;19.480;-99.240;2023-05-20T10:48:28;6.63;;;5.00;;
73672;SDS011;61972;19.480;-99.240;2023-05-20T10:50:57;6.63;;;4.60;;
73672;SDS011;61972;19.480;-99.240;2023-05-20T10:53:27;6.20;;;4.75;;
73672;SDS011;61972;19.480;-99.240;2023-05-20T10:55:55;6.82;;;5.05;;
73672;SDS011;61972;19.480;-99.240;2023-05-20T10:58:22;7.13;;;4.68;;
73672;SDS011;61972;19.480;-99.240;2023-05-20T11:00:54;6.83;;;4.60;;
73672;SDS011;61972;19.480;-99.240;2023-05-20T11:03:21;5.57;;;4.40;;
73672;SDS011;61972;19.480;-99.240;2023-05-20T11:05:47;17.45;;;4.60;;
73672;SDS011;61972;19.480;-99.240;2023-05-20T11:08:13;8.32;;;4.45;;
73672;SDS011;61972;19.480;-99.240;2023-05-20T11:10:40;6.05;;;4.30;;
73672;SDS011;61972;19.480;-99.240;2023-05-20T11:13:10;6.43;;;4.80;;
73672;SDS011;61972;19.480;-99.240;2023-05-20T11:15:38;5.57;;;4.30;;
73672;SDS011;61972;19.480;-99.240;2023-05-20T11:18:04;7.43;;;4.30;;
73672;SDS011;61972;19.480;-99.240;2023-05-20T11:20:30;6.25;;;4.35;;
73672;SDS011;61972;19.480;-99.240;2023-05-20T11:22:59;5.78;;;4.55;;
73672;SDS011;61972;19.480;-99.240;2023-05-20T11:25:27;6.20;;;4.40;;
73672;SDS011;61972;19.480;-99.240;2023-05-20T11:27:53;8.15;;;4.68;;
73672;SDS011;61972;19.480;-99.240;2023-05-20T11:30:20;7.88;;;4.43;;
73672;SDS011;61972;19.480;-99.240;2023-05-20T11:32:56;7.03;;;4.53;;
73672;SDS011;61972;19.480;-99.240;2023-05-20T11:35:24;8.05;;;4.60;;
73672;SDS011;61972;19.480;-99.240;2023-05-20T11:37:55;7.93;;;4.30;;
73672;SDS011;61972;19.480;-99.240;2023-05-20T11:40:23;7.60;;;4.53;;
73672;SDS011;61972;19.480;-99.240;2023-05-20T11:42:53;7.43;;;4.32;;
73672;SDS011;61972;19.480;-99.240;2023-05-20T11:45:24;6.85;;;4.30;;
73672;SDS011;61972;19.480;-99.240;2023-05-20T11:48:04;5.50;;;4.07;;
73672;SDS011;61972;19.480;-99.240;2023-05-20T11:50:34;6.00;;;4.43;;
73672;SDS011;61972;19.480;-99.240;2023-05-20T11:53:04;5.60;;;3.88;;
73672;SDS011;61972;19.480;-99.240;2023-05-20T11:55:54;5.68;;;4.40;;
73672;SDS011;61972;19.480;-99.240;2023-05-20T11:58:22;5.82;;;4.40;;
73672;SDS011;61972;19.480;-99.240;2023-05-20T12:00:50;5.93;;;4.50;;
73672;SDS011;61972;19.480;-99.240;2023-05-20T12:03:17;6.70;;;4.30;;
73672;SDS011;61972;19.480;-99.240;2023-05-20T12:05:43;5.53;;;4.40;;
73672;SDS011;61972;19.480;-99.240;2023-05-20T12:08:11;6.35;;;4.00;;
73672;SDS011;61972;19.480;-99.240;2023-05-20T12:10:37;5.03;;;4.07;;
73672;SDS011;61972;19.480;-99.240;2023-05-20T12:13:04;5.88;;;4.00;;
73672;SDS011;61972;19.480;-99.240;2023-05-20T12:15:34;5.57;;;4.00;;
73672;SDS011;61972;19.480;-99.240;2023-05-20T12:18:01;5.85;;;4.20;;
73672;SDS011;61972;19.480;-99.240;2023-05-20T12:20:27;6.18;;;4.20;;
73672;SDS011;61972;19.480;-99.240;2023-05-20T12:22:55;5.72;;;4.18;;
73672;SDS011;61972;19.480;-99.240;2023-05-20T12:25:22;5.40;;;3.80;;
73672;SDS011;61972;19.480;-99.240;2023-05-20T12:27:48;6.30;;;4.30;;
73672;SDS011;61972;19.480;-99.240;2023-05-20T12:30:21;5.15;;;3.80;;
73672;SDS011;61972;19.480;-99.240;2023-05-20T12:32:48;5.40;;;4.10;;
73672;SDS011;61972;19.480;-99.240;2023-05-20T12:35:16;8.55;;;3.90;;
73672;SDS011;61972;19.480;-99.240;2023-05-20T12:37:43;4.85;;;4.00;;
73672;SDS011;61972;19.480;-99.240;2023-05-20T12:40:10;5.20;;;4.20;;
73672;SDS011;61972;19.480;-99.240;2023-05-20T12:42:40;5.50;;;4.03;;
73672;SDS011;61972;19.480;-99.240;2023-05-20T12:45:07;5.70;;;4.03;;
73672;SDS011;61972;19.480;-99.240;2023-05-20T12:47:34;6.43;;;4.38;;
73672;SDS011;61972;19.480;-99.240;2023-05-20T12:50:01;4.97;;;3.70;;
73672;SDS011;61972;19.480;-99.240;2023-05-20T12:52:28;5.50;;;3.87;;
73672;SDS011;61972;19.480;-99.240;2023-05-20T12:54:54;5.68;;;3.65;;
73672;SDS011;61972;19.480;-99.240;2023-05-20T12:57:22;5.50;;;3.83;;
73672;SDS011;61972;19.480;-99.240;2023-05-20T12:59:49;5.65;;;3.90;;
73672;SDS011;61972;19.480;-99.240;2023-05-20T13:02:15;5.28;;;3.80;;
73672;SDS011;61972;19.480;-99.240;2023-05-20T13:04:41;5.73;;;4.13;;
73672;SDS011;61972;19.480;-99.240;2023-05-20T13:07:07;5.63;;;3.90;;
73672;SDS011;61972;19.480;-99.240;2023-05-20T13:09:33;5.30;;;3.70;;
73672;SDS011;61972;19.480;-99.240;2023-05-20T13:12:00;5.32;;;3.75;;
73672;SDS011;61972;19.480;-99.240;2023-05-20T13:14:26;5.55;;;4.10;;
73672;SDS011;61972;19.480;-99.240;2023-05-20T13:16:53;5.27;;;3.90;;
73672;SDS011;61972;19.480;-99.240;2023-05-20T13:19:20;6.32;;;3.78;;
73672;SDS011;61972;19.480;-99.240;2023-05-20T13:21:49;5.22;;;3.60;;
73672;SDS011;61972;19.480;-99.240;2023-05-20T13:24:18;4.15;;;3.25;;
73672;SDS011;61972;19.480;-99.240;2023-05-20T13:26:44;5.40;;;3.90;;
73672;SDS011;61972;19.480;-99.240;2023-05-20T13:29:11;5.07;;;3.40;;
73672;SDS011;61972;19.480;-99.240;2023-05-20T13:31:37;5.22;;;3.90;;
73672;SDS011;61972;19.480;-99.240;2023-05-20T13:34:04;5.20;;;3.70;;
73672;SDS011;61972;19.480;-99.240;2023-05-20T13:36:30;5.57;;;4.10;;
73672;SDS011;61972;19.480;-99.240;2023-05-20T13:38:57;6.22;;;3.42;;
73672;SDS011;61972;19.480;-99.240;2023-05-20T13:41:23;4.73;;;3.43;;
73672;SDS011;61972;19.480;-99.240;2023-05-20T13:43:50;5.10;;;3.78;;
73672;SDS011;61972;19.480;-99.240;2023-05-20T13:46:16;5.25;;;3.75;;
73672;SDS011;61972;19.480;-99.240;2023-05-20T13:48:43;5.45;;;3.78;;
73672;SDS011;61972;19.480;-99.240;2023-05-20T13:51:09;6.05;;;3.90;;
73672;SDS011;61972;19.480;-99.240;2023-05-20T13:53:35;4.73;;;3.60;;
73672;SDS011;61972;19.480;-99.240;2023-05-20T13:56:01;5.18;;;3.60;;
73672;SDS011;61972;19.480;-99.240;2023-05-20T13:58:28;5.15;;;3.78;;
73672;SDS011;61972;19.480;-99.240;2023-05-20T14:00:54;5.65;;;3.80;;
73672;SDS011;61972;19.480;-99.240;2023-05-20T14:03:20;5.05;;;3.75;;
73672;SDS011;61972;19.480;-99.240;2023-05-20T14:05:46;4.73;;;3.53;;
73672;SDS011;61972;19.480;-99.240;2023-05-20T14:08:12;5.65;;;3.35;;
73672;SDS011;61972;19.480;-99.240;2023-05-20T14:10:38;4.72;;;3.50;;
73672;SDS011;61972;19.480;-99.240;2023-05-20T14:13:04;4.93;;;3.47;;
73672;SDS011;61972;19.480;-99.240;2023-05-20T14:15:30;5.13;;;3.72;;
73672;SDS011;61972;19.480;-99.240;2023-05-20T14:17:57;4.83;;;3.50;;
73672;SDS011;61972;19.480;-99.240;2023-05-20T14:20:23;5.30;;;3.65;;
73672;SDS011;61972;19.480;-99.240;2023-05-20T14:22:53;5.07;;;3.80;;
73672;SDS011;61972;19.480;-99.240;2023-05-20T14:25:19;5.45;;;3.55;;
73672;SDS011;61972;19.480;-99.240;2023-05-20T14:27:45;4.80;;;3.55;;
73672;SDS011;61972;19.480;-99.240;2023-05-20T14:30:11;5.10;;;3.70;;